aviador You're here:

K4I3 Decoded Metar

in _UNIDENTIFIED
Report Time2017-08-18 23:22:00
UTC Time2017-08-18 23:41:33
Flight Rules vfr VFR
Wind260° at 07 kt
W.Rank260° ranks 1
Current wind is below 260° avg. (7.9)
Visibility9999 m
Phenomena:N/A
Clouds:N/A
Expected CloudBase > 2,800 ft AGL from Temp-Dew spread
CeilingNone
Temp26°C (ISA +13)
Dew Point19°C (65% RH)
QNH1012 hPa
Density Alt3,061 ft
Elevation1,191 ft
Report Wrong Elevation
Raw Report
METAR K4I3 182322Z AUTO 26007KT 10SM CLR 26/19 A2989 RMK AO2=

Extra information for K4I3:More info

Metar Taf Metar & Taf Last 4 Metars F.Rules Stats Wind Profile Meteogram Temp Stats Metar ALERT Operation Metar Decoded Social comments